Checkflüge: IR Check Flight SEP

Flugschule

Flugschule

Wir bieten eine professionelle und umfassende Ausbildung.

Flugwetter Augsburg

[Quelle: ADDS]
METAR
EDMA 251020Z VRB01KT CAVOK 13/04 Q1030 =
EDMA 250800Z 2509/2518 VRB03KT CAVOK
TAF
EDMA 250800Z 2509/2518 VRB03KT CAVOK =

Kontakt

Checkflüge: IR Check Flight SEP

Zwei flinke Boxer jagen die quirlige Eva und ihren Mops durch Sylt. Franz jagt im komplett verwahrlosten Taxi quer durch Bayern. Zwölf Boxkämpfer jagen Viktor quer über den großen Sylter Deich. Vogel Quax zwickt Johnys Pferd Bim.

Sylvia wagt quick den Jux bei Pforzheim. Polyfon zwitschernd aßen Mäxchens Vögel Rüben, Joghurt und Quark. "Fix, Schwyz! " quäkt Jürgen blöd vom Paß. Victor jagt zwölf Boxkämpfer quer über den großen Sylter Deich.

Falsches Üben von Xylophonmusik quält jeden größeren Zwerg. Heizölrückstoßabdämpfung. Zwei flinke Boxer jagen die quirlige Eva und ihren Mops durch Sylt. Franz jagt im komplett verwahrlosten Taxi quer durch Bayern.

Zwölf Boxkämpfer jagen Viktor quer über den großen Sylter Deich. Vogel Quax zwickt Johnys Pferd Bim. Sylvia wagt quick den Jux bei Pforzheim. Polyfon zwitschernd aßen Mäxchens Vögel Rüben, Joghurt und Quark. "Fix, Schwyz!

" quäkt Jürgen blöd vom Paß. Victor jagt zwölf Boxkämpfer quer über den großen Sylter Deich. Falsches Üben von Xylophonmusik quält jeden größeren Zwerg. Heizölrückstoßabdämpfung. Zwei flinke Boxer jagen die quirlige Eva und ihren Mops durch Sylt. Franz jagt im komplett verwahrlosten Taxi quer durch Bayern. Zwölf Boxkämpfer jagen Viktor quer über den großen Sylter Deich. Vogel Quax zwickt Johnys Pferd Bim. Sylvia wagt quick den Jux